createdAt,value
2023-02-21T00:00:33.926Z,97525.23
2023-02-21T00:01:55.232Z,97513.52
2023-02-21T00:03:18.278Z,97521.55
2023-02-21T00:04:40.179Z,97512.53
2023-02-21T00:06:02.231Z,97502.83
2023-02-21T00:07:26.782Z,97501.02
2023-02-21T00:08:47.499Z,97501.84
2023-02-21T00:10:09.324Z,97508.02
2023-02-21T00:11:30.463Z,97491.97
2023-02-21T00:12:52.734Z,97478.61
2023-02-21T00:14:13.507Z,97486.63
2023-02-21T00:15:34.591Z,97474.12
2023-02-21T00:16:55.649Z,97485.51
2023-02-21T00:18:18.060Z,97488.18
2023-02-21T00:19:38.833Z,97464.98
2023-02-21T00:21:00.969Z,97458.61
2023-02-21T00:22:22.386Z,97462.14
2023-02-21T00:23:43.268Z,97460.45
2023-02-21T00:25:04.156Z,97455.11
2023-02-21T00:26:25.844Z,97459.63
2023-02-21T00:27:46.779Z,97458.78
2023-02-21T00:29:09.675Z,97461.45
2023-02-21T00:30:32.486Z,97457.92
2023-02-21T00:31:55.127Z,97461.58
2023-02-21T00:33:17.466Z,97456.23
2023-02-21T00:34:38.850Z,97464.25
2023-02-21T00:36:00.865Z,97464.42
2023-02-21T00:37:24.622Z,97459.07
2023-02-21T00:38:46.957Z,97460.92
2023-02-21T00:40:07.783Z,97454.72
2023-02-21T00:41:29.117Z,97453.89
2023-02-21T00:42:50.260Z,97452.20
2023-02-21T00:44:12.405Z,97443.36
2023-02-21T00:45:33.658Z,97454.05
2023-02-21T00:46:54.969Z,97444.19
2023-02-21T00:48:16.082Z,97446.03
2023-02-21T00:49:37.730Z,97432.67
2023-02-21T00:50:58.811Z,97430.16
2023-02-21T00:52:20.476Z,97429.30
2023-02-21T00:53:44.575Z,97429.30
2023-02-21T00:55:06.003Z,97422.31
2023-02-21T00:56:28.299Z,97426.63
2023-02-21T00:57:49.195Z,97423.13
2023-02-21T00:59:11.788Z,97423.13
2023-02-21T01:00:39.320Z,97418.61
2023-02-21T01:02:00.172Z,97426.63
2023-02-21T01:03:21.193Z,97427.48
2023-02-21T01:04:42.736Z,97415.94
2023-02-21T01:06:03.864Z,97422.97
2023-02-21T01:07:24.725Z,97413.96
2023-02-21T01:08:45.914Z,97405.12
2023-02-21T01:10:08.904Z,97425.48
2023-02-21T01:11:34.870Z,97416.47
2023-02-21T01:12:56.934Z,97412.11
2023-02-21T01:14:19.371Z,97422.64
2023-02-21T01:15:40.856Z,97410.30
2023-02-21T01:17:12.472Z,97410.30
2023-02-21T01:18:26.348Z,97399.61
2023-02-21T01:19:47.240Z,97423.50
2023-02-21T01:21:09.406Z,97416.47
2023-02-21T01:22:30.492Z,97415.48
2023-02-21T01:23:51.587Z,97415.48
2023-02-21T01:25:13.325Z,97430.66
2023-02-21T01:26:35.162Z,97425.31
2023-02-21T01:27:57.350Z,97436.86
2023-02-21T01:29:25.054Z,97431.52
2023-02-21T01:30:48.033Z,97452.90
2023-02-21T01:32:10.236Z,97443.03
2023-02-21T01:33:33.657Z,97432.34
2023-02-21T01:34:55.032Z,97418.98
2023-02-21T01:36:17.880Z,97435.84
2023-02-21T01:37:39.226Z,97435.02
2023-02-21T01:39:00.577Z,97435.02
2023-02-21T01:40:25.342Z,97446.53
2023-02-21T01:41:46.569Z,97451.05
2023-02-21T01:43:08.009Z,97451.05
2023-02-21T01:44:54.254Z,97448.37
2023-02-21T01:46:15.767Z,97439.53
2023-02-21T01:47:37.267Z,97442.20
2023-02-21T01:48:59.275Z,97442.20
2023-02-21T01:50:22.153Z,97453.89
2023-02-21T01:51:45.507Z,97433.33
2023-02-21T01:53:06.603Z,97441.52
2023-02-21T01:54:29.164Z,97435.18
2023-02-21T01:55:52.407Z,97458.41
2023-02-21T01:57:14.887Z,97443.20
2023-02-21T01:58:36.209Z,97437.03
2023-02-21T01:59:57.723Z,97433.50
2023-02-21T02:01:19.876Z,97438.84
2023-02-21T02:02:48.317Z,97442.38
2023-02-21T02:04:09.305Z,97427.33
2023-02-21T02:05:32.053Z,97423.66
2023-02-21T02:06:55.276Z,97435.18
2023-02-21T02:08:16.641Z,97437.03
2023-02-21T02:09:40.152Z,97434.35
2023-02-21T02:11:02.451Z,97436.01
2023-02-21T02:12:28.555Z,97432.51
2023-02-21T02:13:43.967Z,97429.83
2023-02-21T02:14:59.233Z,97429.83
2023-02-21T02:16:22.348Z,97427.16
2023-02-21T02:17:34.855Z,97432.51
2023-02-21T02:19:04.840Z,97433.33
2023-02-21T02:20:32.585Z,97413.80
2023-02-21T02:21:55.789Z,97433.33
2023-02-21T02:24:27.394Z,97442.94
2023-02-21T02:25:40.407Z,97422.64
2023-02-21T02:26:58.598Z,97430.66
2023-02-21T02:28:20.070Z,97431.52
2023-02-21T02:29:46.016Z,97425.15
2023-02-21T02:31:04.861Z,97438.52
2023-02-21T02:34:30.461Z,97425.91
2023-02-21T02:36:55.738Z,97435.61
2023-02-21T02:38:07.892Z,97434.03
2023-02-21T02:40:53.031Z,97447.13
2023-02-21T02:42:25.118Z,97437.52
2023-02-21T02:43:40.397Z,97448.09
2023-02-21T02:44:47.802Z,97440.06
2023-02-21T02:46:11.812Z,97457.92
2023-02-21T02:48:47.045Z,97454.00
2023-02-21T02:49:50.681Z,97461.28
2023-02-21T02:50:54.734Z,97467.48
2023-02-21T02:52:04.435Z,97455.80
2023-02-21T02:53:07.342Z,97452.28
2023-02-21T02:54:10.297Z,97459.30
2023-02-21T02:55:32.220Z,97452.97
2023-02-21T02:56:36.324Z,97459.14
2023-02-21T02:57:40.705Z,97450.95
2023-02-21T03:00:02.307Z,97459.54
2023-02-21T03:01:29.912Z,97462.34
2023-02-21T03:02:54.512Z,97463.33
2023-02-21T03:04:10.454Z,97457.00
2023-02-21T03:05:38.883Z,97469.34
2023-02-21T03:06:57.152Z,97453.30
2023-02-21T03:09:28.743Z,97458.52
2023-02-21T03:10:36.575Z,97451.65
2023-02-21T03:11:56.244Z,97451.81
2023-02-21T03:13:11.923Z,97454.48
2023-02-21T03:14:15.890Z,97454.48
2023-02-21T03:15:24.755Z,97465.19
2023-02-21T03:16:31.246Z,97455.31
2023-02-21T03:17:37.170Z,97459.83
2023-02-21T03:19:57.933Z,97446.17
2023-02-21T03:21:03.128Z,97460.66
2023-02-21T03:22:08.645Z,97453.47
2023-02-21T03:23:14.590Z,97453.30
2023-02-21T03:24:18.160Z,97456.83
2023-02-21T03:25:21.346Z,97454.98
2023-02-21T03:26:24.839Z,97462.02
2023-02-21T03:27:30.594Z,97459.17
2023-02-21T03:28:37.697Z,97461.84
2023-02-21T03:29:40.474Z,97459.02
2023-02-21T03:30:43.672Z,97473.20
2023-02-21T03:31:49.431Z,97462.37
2023-02-21T03:32:52.557Z,97462.37
2023-02-21T03:33:56.173Z,97469.38
2023-02-21T03:34:59.786Z,97464.03
2023-02-21T03:36:06.042Z,97458.65
2023-02-21T03:37:13.718Z,97479.09
2023-02-21T03:38:16.604Z,97484.43
2023-02-21T03:39:19.187Z,97471.89
2023-02-21T03:41:40.112Z,97473.27
2023-02-21T03:42:43.485Z,97470.89
2023-02-21T03:43:46.778Z,97472.58
2023-02-21T03:44:49.471Z,97468.22
2023-02-21T03:45:52.795Z,97488.63
2023-02-21T03:46:56.394Z,97490.31
2023-02-21T03:48:00.110Z,97483.28
2023-02-21T03:49:02.756Z,97473.41
2023-02-21T03:50:07.191Z,97484.80
2023-02-21T03:51:11.501Z,97476.77
2023-02-21T03:52:14.538Z,97472.41
2023-02-21T03:53:17.143Z,97489.28
2023-02-21T03:54:21.211Z,97470.56
2023-02-21T03:55:25.732Z,97477.77
2023-02-21T03:56:41.305Z,97475.91
2023-02-21T03:57:38.687Z,97473.24
2023-02-21T03:58:41.219Z,97476.77
2023-02-21T03:59:44.060Z,97480.44
2023-02-21T04:00:47.911Z,97482.12
2023-02-21T04:01:52.739Z,97469.73
2023-02-21T04:02:57.379Z,97478.59
2023-02-21T04:04:07.617Z,97478.59
2023-02-21T04:05:11.427Z,97472.41
2023-02-21T04:06:14.525Z,97480.44
2023-02-21T04:07:18.254Z,97469.73
2023-02-21T04:08:21.792Z,97469.73
2023-02-21T04:09:26.011Z,97477.77
2023-02-21T04:10:29.592Z,97475.09
2023-02-21T04:11:32.422Z,97474.27
2023-02-21T04:12:35.397Z,97461.72
2023-02-21T04:13:38.885Z,97456.37
2023-02-21T04:14:41.405Z,97464.89
2023-02-21T04:15:44.326Z,97464.89
2023-02-21T04:16:48.740Z,97467.89
2023-02-21T04:17:51.419Z,97470.56
2023-02-21T04:18:53.991Z,97474.09
2023-02-21T04:19:56.634Z,97473.24
2023-02-21T04:21:00.397Z,97471.42
2023-02-21T04:22:02.892Z,97470.56
2023-02-21T04:23:05.866Z,97469.58
2023-02-21T04:24:10.560Z,97471.42
2023-02-21T04:25:14.163Z,97458.05
2023-02-21T04:26:18.770Z,97469.58
2023-02-21T04:27:26.462Z,97474.92
2023-02-21T04:28:31.051Z,97464.23
2023-02-21T04:29:33.876Z,97455.37
2023-02-21T04:30:37.398Z,97459.70
2023-02-21T04:31:40.805Z,97469.58
2023-02-21T04:32:46.066Z,97468.75
2023-02-21T04:33:54.929Z,97475.75
2023-02-21T04:34:56.459Z,97464.23
2023-02-21T04:35:59.319Z,97468.75
2023-02-21T04:37:05.718Z,97460.73
2023-02-21T04:38:08.674Z,97471.42
2023-02-21T04:39:11.291Z,97474.92
2023-02-21T04:40:15.488Z,97477.59
2023-02-21T04:41:20.016Z,97479.45
2023-02-21T04:42:23.512Z,97482.12
2023-02-21T04:43:26.573Z,97482.95
2023-02-21T04:44:29.305Z,97482.12
2023-02-21T04:45:31.846Z,97489.12
2023-02-21T04:46:36.332Z,97485.63
2023-02-21T04:47:39.069Z,97485.63
2023-02-21T04:48:43.410Z,97488.30
2023-02-21T04:49:47.946Z,97477.59
2023-02-21T04:50:52.319Z,97490.14
2023-02-21T04:51:55.115Z,97482.12
2023-02-21T04:52:57.720Z,97487.47
2023-02-21T04:54:00.669Z,97481.27
2023-02-21T04:55:04.827Z,97486.61
2023-02-21T04:56:07.611Z,97485.63
2023-02-21T04:57:10.515Z,97489.28
2023-02-21T04:58:14.025Z,97490.14
2023-02-21T04:59:16.703Z,97494.63
2023-02-21T05:00:20.349Z,97498.16
2023-02-21T05:01:27.225Z,97493.64
2023-02-21T05:02:30.040Z,97501.66
2023-02-21T05:03:32.765Z,97504.34
2023-02-21T05:04:37.362Z,97491.13
2023-02-21T05:05:39.921Z,97503.52
2023-02-21T05:06:42.918Z,97519.56
2023-02-21T05:07:45.489Z,97503.52
2023-02-21T05:08:48.160Z,97505.16
2023-02-21T05:09:51.238Z,97508.70
2023-02-21T05:10:55.437Z,97509.69
2023-02-21T05:11:57.941Z,97503.35
2023-02-21T05:13:01.017Z,97505.16
2023-02-21T05:14:03.501Z,97508.53
2023-02-21T05:15:07.336Z,97503.35
2023-02-21T05:16:10.294Z,97503.35
2023-02-21T05:17:14.056Z,97506.02
2023-02-21T05:18:21.584Z,97500.67
2023-02-21T05:19:28.137Z,97499.82
2023-02-21T05:20:30.728Z,97501.50
2023-02-21T05:21:35.642Z,97503.35
2023-02-21T05:22:39.811Z,97489.98
2023-02-21T05:23:44.701Z,97510.38
2023-02-21T05:24:48.582Z,97506.02
2023-02-21T05:25:51.239Z,97506.85
2023-02-21T05:26:54.046Z,97498.00
2023-02-21T05:27:57.092Z,97512.20
2023-02-21T05:28:59.537Z,97513.88
2023-02-21T05:30:01.998Z,97500.52
2023-02-21T05:31:06.241Z,97497.01
2023-02-21T05:32:08.942Z,97497.84
2023-02-21T05:33:11.906Z,97504.02
2023-02-21T05:34:14.789Z,97496.84
2023-02-21T05:35:18.396Z,97495.98
2023-02-21T05:36:22.800Z,97497.84
2023-02-21T05:37:26.489Z,97493.31
2023-02-21T05:38:29.219Z,97495.00
2023-02-21T05:39:32.254Z,97493.15
2023-02-21T05:40:35.147Z,97491.50
2023-02-21T05:41:37.684Z,97498.66
2023-02-21T05:42:41.259Z,97501.34
2023-02-21T05:43:45.440Z,97515.56
2023-02-21T05:44:48.414Z,97506.52
2023-02-21T05:45:51.016Z,97500.34
2023-02-21T05:46:53.819Z,97495.83
2023-02-21T05:47:58.960Z,97511.05
2023-02-21T05:49:02.558Z,97505.69
2023-02-21T05:50:06.148Z,97503.84
2023-02-21T05:51:09.204Z,97500.34
2023-02-21T05:52:12.003Z,97503.02
2023-02-21T05:53:14.520Z,97518.08
2023-02-21T05:54:18.589Z,97508.20
2023-02-21T05:55:21.309Z,97508.20
2023-02-21T05:56:24.352Z,97502.86
2023-02-21T05:57:27.079Z,97508.20
2023-02-21T05:58:29.950Z,97512.73
2023-02-21T05:59:32.689Z,97511.73
2023-02-21T06:00:35.275Z,97504.70
2023-02-21T06:01:38.108Z,97511.73
2023-02-21T06:02:40.527Z,97510.72
2023-02-21T06:03:43.386Z,97513.39
2023-02-21T06:04:46.189Z,97510.72
2023-02-21T06:05:48.937Z,97510.72
2023-02-21T06:06:51.754Z,97520.42
2023-02-21T06:07:54.319Z,97513.39
2023-02-21T06:08:56.866Z,97515.23
2023-02-21T06:09:59.431Z,97519.59
2023-02-21T06:11:02.595Z,97521.41
2023-02-21T06:12:05.633Z,97512.40
2023-02-21T06:13:08.284Z,97530.30
2023-02-21T06:14:15.964Z,97520.42
2023-02-21T06:15:18.573Z,97525.77
2023-02-21T06:16:22.833Z,97519.59
2023-02-21T06:17:26.428Z,97528.45
2023-02-21T06:18:29.062Z,97526.77
2023-02-21T06:19:33.322Z,97524.09
2023-02-21T06:20:35.942Z,97532.11
2023-02-21T06:21:39.958Z,97526.77
2023-02-21T06:22:43.296Z,97533.80
2023-02-21T06:23:47.153Z,97527.62
2023-02-21T06:24:52.117Z,97540.14
2023-02-21T06:25:55.462Z,97541.81
2023-02-21T06:26:59.784Z,97541.81
2023-02-21T06:28:03.120Z,97539.14
2023-02-21T06:29:05.739Z,97537.30
2023-02-21T06:30:10.199Z,97542.64
2023-02-21T06:31:12.960Z,97545.32
2023-02-21T06:32:15.589Z,97547.83
2023-02-21T06:33:18.087Z,97538.98
2023-02-21T06:34:21.832Z,97538.98
2023-02-21T06:35:26.032Z,97542.48
2023-02-21T06:36:28.712Z,97547.83
2023-02-21T06:37:31.268Z,97554.03
2023-02-21T06:38:35.292Z,97535.48
2023-02-21T06:39:39.250Z,97542.48
2023-02-21T06:40:44.102Z,97553.17
2023-02-21T06:41:48.769Z,97546.02
2023-02-21T06:42:51.384Z,97552.35
2023-02-21T06:43:54.443Z,97553.17
2023-02-21T06:44:58.457Z,97553.17
2023-02-21T06:46:01.121Z,97539.80
2023-02-21T06:47:04.366Z,97538.98
2023-02-21T06:48:07.727Z,97550.50
2023-02-21T06:49:10.933Z,97555.86
2023-02-21T06:50:13.577Z,97547.00
2023-02-21T06:51:16.385Z,97557.70
2023-02-21T06:52:19.110Z,97554.86
2023-02-21T06:53:21.697Z,97550.50
2023-02-21T06:54:25.792Z,97553.17
2023-02-21T06:55:28.902Z,97561.20
2023-02-21T06:56:31.606Z,97556.72
2023-02-21T06:57:34.684Z,97553.17
2023-02-21T06:58:37.135Z,97553.17
2023-02-21T06:59:41.651Z,97559.39
2023-02-21T07:00:44.200Z,97554.86
2023-02-21T07:01:46.775Z,97540.66
2023-02-21T07:02:50.169Z,97542.48
2023-02-21T07:03:52.644Z,97546.84
2023-02-21T07:04:56.463Z,97543.34
2023-02-21T07:05:59.117Z,97537.00
2023-02-21T07:07:02.151Z,97544.16
2023-02-21T07:08:06.073Z,97539.67
2023-02-21T07:09:08.953Z,97535.31
2023-02-21T07:10:13.236Z,97522.44
2023-02-21T07:11:17.684Z,97522.44
2023-02-21T07:12:20.919Z,97534.33
2023-02-21T07:13:23.516Z,97534.33
2023-02-21T07:14:25.993Z,97537.83
2023-02-21T07:15:29.885Z,97529.80
2023-02-21T07:16:33.749Z,97522.60
2023-02-21T07:17:36.128Z,97537.83
2023-02-21T07:18:39.424Z,97525.28
2023-02-21T07:19:42.733Z,97538.66
2023-02-21T07:20:46.804Z,97534.16
2023-02-21T07:21:50.508Z,97530.47
2023-02-21T07:22:53.737Z,97536.83
2023-02-21T07:23:56.436Z,97533.14
2023-02-21T07:25:00.440Z,97533.14
2023-02-21T07:26:04.965Z,97533.14
2023-02-21T07:27:07.426Z,97521.61
2023-02-21T07:28:10.677Z,97529.80
2023-02-21T07:29:14.520Z,97534.16
2023-02-21T07:30:18.624Z,97526.13
2023-02-21T07:31:21.898Z,97526.13
2023-02-21T07:33:27.770Z,97522.60
2023-02-21T07:34:30.578Z,97528.81
2023-02-21T07:35:33.404Z,97521.61
2023-02-21T07:36:39.737Z,97526.96
2023-02-21T07:37:41.704Z,97526.13
2023-02-21T07:38:44.412Z,97530.63
2023-02-21T07:39:47.542Z,97536.83
2023-02-21T07:40:50.464Z,97536.83
2023-02-21T07:41:53.041Z,97522.27
2023-02-21T07:42:57.711Z,97522.27
2023-02-21T07:44:00.867Z,97540.50
2023-02-21T07:45:04.077Z,97554.70
2023-02-21T07:46:14.241Z,97541.33
2023-02-21T07:47:18.139Z,97543.17
2023-02-21T07:48:22.213Z,97541.33
2023-02-21T07:49:26.056Z,97535.98
2023-02-21T07:50:28.786Z,97527.95
2023-02-21T07:51:32.601Z,97532.48
2023-02-21T07:52:35.821Z,97527.12
2023-02-21T07:53:38.721Z,97535.15
2023-02-21T07:54:41.257Z,97535.15
2023-02-21T07:55:43.860Z,97525.28
2023-02-21T07:56:47.608Z,97536.83
2023-02-21T07:57:50.205Z,97532.31
2023-02-21T07:58:54.760Z,97521.25
2023-02-21T07:59:57.956Z,97521.25
2023-02-21T08:01:02.239Z,97542.02
2023-02-21T08:02:04.879Z,97539.34
2023-02-21T08:03:07.669Z,97545.52
2023-02-21T08:04:10.298Z,97543.84
2023-02-21T08:05:14.250Z,97549.19
2023-02-21T08:06:17.910Z,97550.05
2023-02-21T08:07:20.574Z,97554.41
2023-02-21T08:08:24.116Z,97540.17
2023-02-21T08:09:27.233Z,97554.41
2023-02-21T08:10:30.651Z,97541.03
2023-02-21T08:11:35.133Z,97537.50
2023-02-21T08:12:38.467Z,97536.67
2023-02-21T08:13:41.533Z,97536.67
2023-02-21T08:14:45.077Z,97544.70
2023-02-21T08:15:47.783Z,97533.14
2023-02-21T08:16:50.776Z,97534.82
2023-02-21T08:17:53.637Z,97537.50
2023-02-21T08:18:56.168Z,97537.50
2023-02-21T08:19:58.641Z,97540.17
2023-02-21T08:21:01.411Z,97539.34
2023-02-21T08:22:05.129Z,97548.20
2023-02-21T08:23:07.752Z,97548.20
2023-02-21T08:24:10.966Z,97537.50
2023-02-21T08:25:14.952Z,97541.86
2023-02-21T08:26:18.358Z,97536.67
2023-02-21T08:27:21.110Z,97546.52
2023-02-21T08:28:23.825Z,97538.48
2023-02-21T08:29:26.535Z,97554.53
2023-02-21T08:30:29.210Z,97556.22
2023-02-21T08:31:37.113Z,97542.02
2023-02-21T08:32:40.749Z,97542.02
2023-02-21T08:33:44.483Z,97532.14
2023-02-21T08:34:50.146Z,97533.83
2023-02-21T08:35:52.651Z,97542.84
2023-02-21T08:36:57.521Z,97543.70
2023-02-21T08:38:04.531Z,97540.17
2023-02-21T08:39:09.659Z,97534.00
2023-02-21T08:40:13.369Z,97534.00
2023-02-21T08:41:16.306Z,97534.82
2023-02-21T08:42:20.628Z,97525.11
2023-02-21T08:43:24.710Z,97533.14
2023-02-21T08:44:29.439Z,97527.78
2023-02-21T08:45:32.272Z,97520.78
2023-02-21T08:46:35.702Z,97530.47
2023-02-21T08:47:39.607Z,97534.98
2023-02-21T08:48:42.102Z,97541.48
2023-02-21T08:49:49.517Z,97574.91
2023-02-21T08:50:53.757Z,97529.73
2023-02-21T08:51:56.312Z,97555.92
2023-02-21T08:52:58.803Z,97532.77
2023-02-21T08:54:01.439Z,97525.52
2023-02-21T08:55:04.827Z,97524.03
2023-02-21T08:56:08.505Z,97527.70
2023-02-21T08:57:11.688Z,97541.06
2023-02-21T08:58:14.580Z,97527.16
2023-02-21T08:59:17.968Z,97535.50
2023-02-21T09:00:23.260Z,97532.45
2023-02-21T09:01:34.797Z,97524.91
2023-02-21T09:02:40.455Z,97520.56
2023-02-21T09:03:43.595Z,97517.06
2023-02-21T09:04:46.437Z,97519.73
2023-02-21T09:05:49.253Z,97547.59
2023-02-21T09:06:51.879Z,97507.63
2023-02-21T09:07:57.323Z,97532.81
2023-02-21T09:09:00.126Z,97516.95
2023-02-21T09:10:03.642Z,97521.30
2023-02-21T09:11:07.065Z,97533.52
2023-02-21T09:12:09.833Z,97512.97
2023-02-21T09:13:12.618Z,97562.36
2023-02-21T09:14:16.019Z,97533.61
2023-02-21T09:15:19.170Z,97527.50
2023-02-21T09:16:22.637Z,97527.50
2023-02-21T09:17:25.916Z,97527.50
2023-02-21T09:18:28.846Z,97526.36
2023-02-21T09:19:31.463Z,97526.03
2023-02-21T09:20:34.310Z,97523.05
2023-02-21T09:21:38.758Z,97538.95
2023-02-21T09:22:45.583Z,97531.92
2023-02-21T09:23:48.204Z,97526.73
2023-02-21T09:24:50.836Z,97519.71
2023-02-21T09:25:53.933Z,97533.83
2023-02-21T09:28:16.133Z,97530.02
2023-02-21T09:29:18.830Z,97554.34
2023-02-21T09:30:24.770Z,97554.80
2023-02-21T09:31:27.447Z,97553.87
2023-02-21T09:32:30.334Z,97527.95
2023-02-21T09:33:32.994Z,97517.59
2023-02-21T09:34:35.558Z,97542.74
2023-02-21T09:35:38.780Z,97508.52
2023-02-21T09:36:42.099Z,97526.65
2023-02-21T09:37:45.080Z,97528.61
2023-02-21T09:38:48.422Z,97510.64
2023-02-21T09:39:51.512Z,97517.50
2023-02-21T09:40:59.571Z,97531.09
2023-02-21T09:42:03.659Z,97511.23
2023-02-21T09:43:15.096Z,97532.53
2023-02-21T09:44:23.934Z,97531.74
2023-02-21T09:45:34.039Z,97518.16
2023-02-21T09:46:42.335Z,97510.31
2023-02-21T09:47:44.926Z,97513.53
2023-02-21T09:48:48.609Z,97519.38
2023-02-21T09:49:52.079Z,97510.55
2023-02-21T09:50:57.521Z,97513.06
2023-02-21T09:51:59.962Z,97530.52
2023-02-21T09:53:02.314Z,97544.99
2023-02-21T09:54:04.892Z,97522.12
2023-02-21T09:55:30.554Z,97527.45
2023-02-21T09:56:35.928Z,97524.78
2023-02-21T09:57:38.585Z,97548.89
2023-02-21T09:58:45.741Z,97539.91
2023-02-21T09:59:48.846Z,97534.48
2023-02-21T10:00:52.729Z,97526.23
2023-02-21T10:02:26.196Z,97551.36
2023-02-21T10:03:38.885Z,97538.18
2023-02-21T10:04:58.864Z,97546.80
2023-02-21T10:06:15.293Z,97542.89
2023-02-21T10:08:47.249Z,97560.48
2023-02-21T10:10:03.812Z,97570.59
2023-02-21T10:11:31.444Z,97556.70
2023-02-21T10:12:37.935Z,97557.16
2023-02-21T10:13:51.376Z,97554.23
2023-02-21T10:15:18.310Z,97520.59
2023-02-21T10:18:04.178Z,97533.16
2023-02-21T10:19:30.813Z,97537.00
2023-02-21T10:20:37.899Z,97538.13
2023-02-21T10:21:42.183Z,97531.28
2023-02-21T10:22:46.168Z,97541.65
2023-02-21T10:23:50.929Z,97557.78
2023-02-21T10:24:55.252Z,97536.47
2023-02-21T10:26:02.739Z,97544.31
2023-02-21T10:27:06.960Z,97547.95
2023-02-21T10:28:18.760Z,97579.52
2023-02-21T10:30:37.358Z,97543.15
2023-02-21T10:31:40.042Z,97548.89
2023-02-21T10:32:42.813Z,97583.66
2023-02-21T10:33:46.883Z,97556.70
2023-02-21T10:34:49.764Z,97561.02
2023-02-21T10:35:54.386Z,97542.12
2023-02-21T10:37:00.463Z,97553.07
2023-02-21T10:38:04.952Z,97544.63
2023-02-21T10:40:35.673Z,97538.50
2023-02-21T10:41:40.440Z,97542.84
2023-02-21T10:42:45.055Z,97540.97
2023-02-21T10:43:57.246Z,97562.99
2023-02-21T10:44:59.815Z,97572.63
2023-02-21T10:46:25.833Z,97551.36
2023-02-21T10:47:58.547Z,97557.66
2023-02-21T10:49:26.615Z,97569.09
2023-02-21T10:51:01.543Z,97575.35
2023-02-21T10:52:22.707Z,97571.23
2023-02-21T10:53:29.006Z,97575.99
2023-02-21T10:54:34.191Z,97575.53
2023-02-21T10:55:36.218Z,97566.23
2023-02-21T10:56:38.818Z,97571.25
2023-02-21T10:57:43.043Z,97557.48
2023-02-21T10:58:58.223Z,97568.67
2023-02-21T11:00:00.668Z,97578.09
2023-02-21T11:01:30.545Z,97570.47
2023-02-21T11:02:39.682Z,97581.69
2023-02-21T11:03:46.418Z,97574.90
2023-02-21T11:04:49.005Z,97571.91
2023-02-21T11:05:54.610Z,97576.94
2023-02-21T11:07:06.738Z,97578.47
2023-02-21T11:08:10.363Z,97567.47
2023-02-21T11:10:42.524Z,97573.65
2023-02-21T11:11:45.551Z,97573.58
2023-02-21T11:12:52.224Z,97559.05
2023-02-21T11:14:07.152Z,97564.94
2023-02-21T11:15:16.609Z,97563.79
2023-02-21T11:16:22.691Z,97573.17
2023-02-21T11:17:28.255Z,97562.33
2023-02-21T11:18:30.832Z,97569.20
2023-02-21T11:19:44.984Z,97576.06
2023-02-21T11:20:48.086Z,97576.89
2023-02-21T11:21:54.859Z,97567.56
2023-02-21T11:22:57.266Z,97576.25
2023-02-21T11:24:04.297Z,97575.11
2023-02-21T11:25:14.124Z,97572.27
2023-02-21T11:26:18.743Z,97580.98
2023-02-21T11:27:21.670Z,97581.66
2023-02-21T11:28:24.541Z,97594.73
2023-02-21T11:29:26.999Z,97584.70
2023-02-21T11:30:32.136Z,97584.55
2023-02-21T11:31:34.863Z,97584.41
2023-02-21T11:32:38.526Z,97588.61
2023-02-21T11:34:00.844Z,97600.99
2023-02-21T11:36:33.862Z,97587.03
2023-02-21T11:37:40.993Z,97578.30
2023-02-21T11:38:46.683Z,97589.81
2023-02-21T11:39:51.332Z,97580.80
2023-02-21T11:40:54.238Z,97583.31
2023-02-21T11:41:58.701Z,97577.47
2023-02-21T11:43:12.441Z,97577.47
2023-02-21T11:45:58.782Z,97586.25
2023-02-21T11:47:21.371Z,97593.53
2023-02-21T11:48:25.670Z,97596.20
2023-02-21T11:49:35.030Z,97573.00
2023-02-21T11:50:39.919Z,97584.52
2023-02-21T11:51:49.414Z,97610.27
2023-02-21T11:53:08.851Z,97609.28
2023-02-21T11:54:11.532Z,97588.72
2023-02-21T11:55:19.697Z,97609.13
2023-02-21T11:56:29.420Z,97601.09
2023-02-21T11:57:41.922Z,97593.91
2023-02-21T11:59:01.288Z,97602.78
2023-02-21T12:00:25.772Z,97606.28
2023-02-21T12:03:05.597Z,97586.73
2023-02-21T12:05:59.420Z,97602.57
2023-02-21T12:07:29.698Z,97610.98
2023-02-21T12:08:56.245Z,97599.22
2023-02-21T12:10:22.757Z,97594.67
2023-02-21T12:11:41.209Z,97589.62
2023-02-21T12:12:48.432Z,97619.17
2023-02-21T12:15:22.489Z,97650.09
2023-02-21T12:16:37.558Z,97629.28
2023-02-21T12:17:57.172Z,97628.51
2023-02-21T12:21:02.635Z,97616.45
2023-02-21T12:22:24.080Z,97629.89
2023-02-21T12:25:20.706Z,97627.37
2023-02-21T12:28:06.686Z,97615.22
2023-02-21T12:30:54.822Z,97621.11
2023-02-21T12:32:21.034Z,97639.58
2023-02-21T12:33:33.882Z,97633.09
2023-02-21T12:36:39.974Z,97625.06
2023-02-21T12:39:51.993Z,97612.23
2023-02-21T12:40:59.070Z,97628.20
2023-02-21T12:43:32.325Z,97624.96
2023-02-21T12:46:02.758Z,97630.84
2023-02-21T12:48:26.415Z,97625.28
2023-02-21T12:49:47.923Z,97647.17
2023-02-21T12:50:52.784Z,97634.51
2023-02-21T12:52:08.591Z,97634.34
2023-02-21T12:53:17.070Z,97639.56
2023-02-21T12:54:26.705Z,97641.09
2023-02-21T12:55:36.500Z,97648.95
2023-02-21T12:56:44.285Z,97656.81
2023-02-21T12:58:06.908Z,97638.10
2023-02-21T13:00:47.366Z,97633.03
2023-02-21T13:01:53.172Z,97642.97
2023-02-21T13:03:03.312Z,97658.88
2023-02-21T13:04:26.514Z,97632.97
2023-02-21T13:05:39.679Z,97632.81
2023-02-21T13:07:01.498Z,97631.83
2023-02-21T13:08:19.729Z,97647.70
2023-02-21T13:09:42.621Z,97651.20
2023-02-21T13:11:02.659Z,97637.02
2023-02-21T13:12:14.250Z,97631.50
2023-02-21T13:13:21.678Z,97638.70
2023-02-21T13:14:49.033Z,97632.48
2023-02-21T13:15:53.374Z,97644.05
2023-02-21T13:16:57.024Z,97632.33
2023-02-21T13:18:04.441Z,97640.34
2023-02-21T13:19:09.620Z,97631.34
2023-02-21T13:20:17.919Z,97633.03
2023-02-21T13:21:43.046Z,97638.37
2023-02-21T13:23:38.468Z,97636.37
2023-02-21T13:26:39.375Z,97647.66
2023-02-21T13:29:24.757Z,97641.61
2023-02-21T13:30:36.143Z,97639.20
2023-02-21T13:31:40.190Z,97634.88
2023-02-21T13:32:52.480Z,97662.44
2023-02-21T13:33:56.768Z,97673.97
2023-02-21T13:35:01.465Z,97687.88
2023-02-21T13:37:46.176Z,97691.97
2023-02-21T13:39:13.018Z,97669.83
2023-02-21T13:41:52.133Z,97650.70
2023-02-21T13:44:35.736Z,97694.48
2023-02-21T13:45:38.784Z,97703.60
2023-02-21T13:46:45.917Z,97687.55
2023-02-21T13:48:03.345Z,97683.03
2023-02-21T13:49:44.226Z,97713.48
2023-02-21T13:50:52.548Z,97699.24
2023-02-21T13:51:59.216Z,97711.78
2023-02-21T13:54:32.630Z,97728.72
2023-02-21T13:55:36.525Z,97741.52
2023-02-21T13:56:42.273Z,97712.27
2023-02-21T13:57:51.249Z,97726.62
2023-02-21T13:58:55.069Z,97751.52
2023-02-21T13:59:57.924Z,97709.59
2023-02-21T14:01:27.806Z,97706.91
2023-02-21T14:02:33.175Z,97714.08
2023-02-21T14:03:36.263Z,97718.44
2023-02-21T14:05:01.343Z,97712.27
2023-02-21T14:06:14.716Z,97722.96
2023-02-21T14:07:18.533Z,97738.15
2023-02-21T14:08:35.796Z,97722.96
2023-02-21T14:09:39.811Z,97715.09
2023-02-21T14:10:50.198Z,97731.97
2023-02-21T14:11:57.110Z,97740.00
2023-02-21T14:13:04.202Z,97712.42
2023-02-21T14:14:27.662Z,97712.42
2023-02-21T14:15:43.291Z,97717.77
2023-02-21T14:16:52.909Z,97713.25
2023-02-21T14:17:58.009Z,97713.25
2023-02-21T14:19:09.489Z,97717.61
2023-02-21T14:20:17.758Z,97708.89
2023-02-21T14:21:30.083Z,97707.91
2023-02-21T14:22:33.049Z,97706.06
2023-02-21T14:23:48.957Z,97698.03
2023-02-21T14:26:09.192Z,97729.05
2023-02-21T14:27:15.652Z,97716.75